sensor_id;sensor_type;location;lat;lon;timestamp;P1;durP1;ratioP1;P2;durP2;ratioP2
47589;SDS011;33316;52.298;9.056;2024-03-29T00:00:13;1.13;;;0.50;;
47589;SDS011;33316;52.298;9.056;2024-03-29T00:02:40;1.02;;;0.30;;
47589;SDS011;33316;52.298;9.056;2024-03-29T00:05:07;1.33;;;0.40;;
47589;SDS011;33316;52.298;9.056;2024-03-29T00:07:33;1.65;;;0.60;;
47589;SDS011;33316;52.298;9.056;2024-03-29T00:10:05;1.20;;;0.38;;
47589;SDS011;33316;52.298;9.056;2024-03-29T00:12:33;1.45;;;0.40;;
47589;SDS011;33316;52.298;9.056;2024-03-29T00:14:59;0.47;;;0.30;;
47589;SDS011;33316;52.298;9.056;2024-03-29T00:17:25;3.17;;;0.52;;
47589;SDS011;33316;52.298;9.056;2024-03-29T00:19:51;0.98;;;0.43;;
47589;SDS011;33316;52.298;9.056;2024-03-29T00:22:17;2.33;;;0.50;;
47589;SDS011;33316;52.298;9.056;2024-03-29T00:24:43;3.50;;;0.60;;
47589;SDS011;33316;52.298;9.056;2024-03-29T00:27:09;1.73;;;0.40;;
47589;SDS011;33316;52.298;9.056;2024-03-29T00:29:36;1.80;;;0.47;;
47589;SDS011;33316;52.298;9.056;2024-03-29T00:32:02;1.20;;;0.32;;
47589;SDS011;33316;52.298;9.056;2024-03-29T00:34:29;1.05;;;0.45;;
47589;SDS011;33316;52.298;9.056;2024-03-29T00:36:55;1.73;;;0.47;;
47589;SDS011;33316;52.298;9.056;2024-03-29T00:39:21;0.57;;;0.32;;
47589;SDS011;33316;52.298;9.056;2024-03-29T00:41:46;1.88;;;0.43;;
47589;SDS011;33316;52.298;9.056;2024-03-29T00:44:12;0.52;;;0.40;;
47589;SDS011;33316;52.298;9.056;2024-03-29T00:46:40;1.63;;;0.40;;
47589;SDS011;33316;52.298;9.056;2024-03-29T00:49:06;1.48;;;0.30;;
47589;SDS011;33316;52.298;9.056;2024-03-29T00:51:35;2.28;;;0.43;;
47589;SDS011;33316;52.298;9.056;2024-03-29T00:54:01;0.80;;;0.40;;
47589;SDS011;33316;52.298;9.056;2024-03-29T00:56:27;1.73;;;0.55;;
47589;SDS011;33316;52.298;9.056;2024-03-29T00:58:53;0.68;;;0.35;;
47589;SDS011;33316;52.298;9.056;2024-03-29T01:01:19;1.25;;;0.40;;
47589;SDS011;33316;52.298;9.056;2024-03-29T01:03:46;1.15;;;0.40;;
47589;SDS011;33316;52.298;9.056;2024-03-29T01:06:12;2.17;;;0.50;;
47589;SDS011;33316;52.298;9.056;2024-03-29T01:08:38;1.35;;;0.55;;
47589;SDS011;33316;52.298;9.056;2024-03-29T01:11:04;1.20;;;0.40;;
47589;SDS011;33316;52.298;9.056;2024-03-29T01:13:30;0.82;;;0.40;;
47589;SDS011;33316;52.298;9.056;2024-03-29T01:15:56;1.23;;;0.35;;
47589;SDS011;33316;52.298;9.056;2024-03-29T01:18:22;2.45;;;0.40;;
47589;SDS011;33316;52.298;9.056;2024-03-29T01:20:49;1.42;;;0.45;;
47589;SDS011;33316;52.298;9.056;2024-03-29T01:23:15;1.13;;;0.30;;
47589;SDS011;33316;52.298;9.056;2024-03-29T01:25:41;1.77;;;0.50;;
47589;SDS011;33316;52.298;9.056;2024-03-29T01:28:07;1.75;;;0.60;;
47589;SDS011;33316;52.298;9.056;2024-03-29T01:30:33;0.98;;;0.35;;
47589;SDS011;33316;52.298;9.056;2024-03-29T01:32:59;0.63;;;0.30;;
47589;SDS011;33316;52.298;9.056;2024-03-29T01:35:26;3.00;;;0.47;;
47589;SDS011;33316;52.298;9.056;2024-03-29T01:37:53;0.77;;;0.30;;
47589;SDS011;33316;52.298;9.056;2024-03-29T01:40:19;1.08;;;0.38;;
47589;SDS011;33316;52.298;9.056;2024-03-29T01:42:45;1.45;;;0.60;;
47589;SDS011;33316;52.298;9.056;2024-03-29T01:45:11;0.75;;;0.40;;
47589;SDS011;33316;52.298;9.056;2024-03-29T01:47:38;2.17;;;0.40;;
47589;SDS011;33316;52.298;9.056;2024-03-29T01:50:05;1.58;;;0.50;;
47589;SDS011;33316;52.298;9.056;2024-03-29T01:52:34;0.30;;;0.28;;
47589;SDS011;33316;52.298;9.056;2024-03-29T01:55:02;2.22;;;0.38;;
47589;SDS011;33316;52.298;9.056;2024-03-29T01:57:29;1.83;;;0.40;;
47589;SDS011;33316;52.298;9.056;2024-03-29T01:59:56;1.00;;;0.38;;
47589;SDS011;33316;52.298;9.056;2024-03-29T02:02:24;2.22;;;0.50;;
47589;SDS011;33316;52.298;9.056;2024-03-29T02:04:51;1.05;;;0.30;;
47589;SDS011;33316;52.298;9.056;2024-03-29T02:07:18;1.30;;;0.40;;
47589;SDS011;33316;52.298;9.056;2024-03-29T02:09:45;0.93;;;0.47;;
47589;SDS011;33316;52.298;9.056;2024-03-29T02:12:14;0.75;;;0.32;;
47589;SDS011;33316;52.298;9.056;2024-03-29T02:14:41;0.98;;;0.35;;
47589;SDS011;33316;52.298;9.056;2024-03-29T02:17:08;0.55;;;0.30;;
47589;SDS011;33316;52.298;9.056;2024-03-29T02:19:35;0.95;;;0.40;;
47589;SDS011;33316;52.298;9.056;2024-03-29T02:22:02;1.35;;;0.40;;
47589;SDS011;33316;52.298;9.056;2024-03-29T02:24:33;3.17;;;0.52;;
47589;SDS011;33316;52.298;9.056;2024-03-29T02:27:00;1.42;;;0.30;;
47589;SDS011;33316;52.298;9.056;2024-03-29T02:29:27;1.17;;;0.35;;
47589;SDS011;33316;52.298;9.056;2024-03-29T02:31:55;2.40;;;0.80;;
47589;SDS011;33316;52.298;9.056;2024-03-29T02:34:22;0.65;;;0.40;;
47589;SDS011;33316;52.298;9.056;2024-03-29T02:36:49;0.75;;;0.50;;
47589;SDS011;33316;52.298;9.056;2024-03-29T02:39:16;1.02;;;0.30;;
47589;SDS011;33316;52.298;9.056;2024-03-29T02:41:44;0.60;;;0.30;;
47589;SDS011;33316;52.298;9.056;2024-03-29T02:44:11;0.60;;;0.30;;
47589;SDS011;33316;52.298;9.056;2024-03-29T02:46:40;1.35;;;0.40;;
47589;SDS011;33316;52.298;9.056;2024-03-29T02:49:07;0.73;;;0.30;;
47589;SDS011;33316;52.298;9.056;2024-03-29T02:51:36;0.90;;;0.28;;
47589;SDS011;33316;52.298;9.056;2024-03-29T02:54:02;1.10;;;0.35;;
47589;SDS011;33316;52.298;9.056;2024-03-29T02:56:30;1.42;;;0.73;;
47589;SDS011;33316;52.298;9.056;2024-03-29T02:58:58;2.55;;;0.70;;
47589;SDS011;33316;52.298;9.056;2024-03-29T03:01:25;2.03;;;0.60;;
47589;SDS011;33316;52.298;9.056;2024-03-29T03:03:51;1.42;;;0.50;;
47589;SDS011;33316;52.298;9.056;2024-03-29T03:06:19;0.38;;;0.30;;
47589;SDS011;33316;52.298;9.056;2024-03-29T03:08:45;0.50;;;0.35;;
47589;SDS011;33316;52.298;9.056;2024-03-29T03:11:30;1.60;;;0.40;;
47589;SDS011;33316;52.298;9.056;2024-03-29T03:13:58;0.75;;;0.30;;
47589;SDS011;33316;52.298;9.056;2024-03-29T03:16:24;2.10;;;0.60;;
47589;SDS011;33316;52.298;9.056;2024-03-29T03:18:51;1.52;;;0.50;;
47589;SDS011;33316;52.298;9.056;2024-03-29T03:21:17;0.80;;;0.40;;
47589;SDS011;33316;52.298;9.056;2024-03-29T03:23:44;0.43;;;0.40;;
47589;SDS011;33316;52.298;9.056;2024-03-29T03:26:10;1.15;;;0.40;;
47589;SDS011;33316;52.298;9.056;2024-03-29T03:28:37;1.00;;;0.40;;
47589;SDS011;33316;52.298;9.056;2024-03-29T03:31:04;3.15;;;0.80;;
47589;SDS011;33316;52.298;9.056;2024-03-29T03:33:32;1.20;;;0.40;;
47589;SDS011;33316;52.298;9.056;2024-03-29T03:35:58;0.63;;;0.40;;
47589;SDS011;33316;52.298;9.056;2024-03-29T03:38:25;0.77;;;0.25;;
47589;SDS011;33316;52.298;9.056;2024-03-29T03:40:51;1.45;;;0.47;;
47589;SDS011;33316;52.298;9.056;2024-03-29T03:43:17;1.15;;;0.40;;
47589;SDS011;33316;52.298;9.056;2024-03-29T03:45:43;1.05;;;0.40;;
47589;SDS011;33316;52.298;9.056;2024-03-29T03:48:12;1.92;;;0.50;;
47589;SDS011;33316;52.298;9.056;2024-03-29T03:50:37;1.98;;;0.60;;
47589;SDS011;33316;52.298;9.056;2024-03-29T03:53:06;0.47;;;0.30;;
47589;SDS011;33316;52.298;9.056;2024-03-29T03:55:35;2.65;;;0.40;;
47589;SDS011;33316;52.298;9.056;2024-03-29T03:58:02;0.98;;;0.40;;
47589;SDS011;33316;52.298;9.056;2024-03-29T04:00:28;0.98;;;0.32;;
47589;SDS011;33316;52.298;9.056;2024-03-29T04:02:55;1.73;;;0.43;;
47589;SDS011;33316;52.298;9.056;2024-03-29T04:05:23;0.95;;;0.40;;
47589;SDS011;33316;52.298;9.056;2024-03-29T04:07:51;1.23;;;0.43;;
47589;SDS011;33316;52.298;9.056;2024-03-29T04:10:17;2.78;;;0.77;;
47589;SDS011;33316;52.298;9.056;2024-03-29T04:12:44;2.25;;;0.70;;
47589;SDS011;33316;52.298;9.056;2024-03-29T04:15:10;2.50;;;0.75;;
47589;SDS011;33316;52.298;9.056;2024-03-29T04:17:37;2.13;;;0.88;;
47589;SDS011;33316;52.298;9.056;2024-03-29T04:20:03;1.95;;;1.20;;
47589;SDS011;33316;52.298;9.056;2024-03-29T04:22:32;2.67;;;1.27;;
47589;SDS011;33316;52.298;9.056;2024-03-29T04:24:58;4.95;;;1.90;;
47589;SDS011;33316;52.298;9.056;2024-03-29T04:27:25;3.63;;;1.88;;
47589;SDS011;33316;52.298;9.056;2024-03-29T04:29:51;3.88;;;2.20;;
47589;SDS011;33316;52.298;9.056;2024-03-29T04:32:18;4.40;;;2.13;;
47589;SDS011;33316;52.298;9.056;2024-03-29T04:34:46;4.03;;;2.03;;
47589;SDS011;33316;52.298;9.056;2024-03-29T04:37:13;3.47;;;2.20;;
47589;SDS011;33316;52.298;9.056;2024-03-29T04:39:42;3.42;;;2.20;;
47589;SDS011;33316;52.298;9.056;2024-03-29T04:42:12;3.90;;;2.28;;
47589;SDS011;33316;52.298;9.056;2024-03-29T04:44:40;3.60;;;2.20;;
47589;SDS011;33316;52.298;9.056;2024-03-29T04:47:07;3.67;;;2.45;;
47589;SDS011;33316;52.298;9.056;2024-03-29T04:49:34;4.10;;;2.30;;
47589;SDS011;33316;52.298;9.056;2024-03-29T04:52:02;3.95;;;1.95;;
47589;SDS011;33316;52.298;9.056;2024-03-29T04:54:30;3.25;;;1.95;;
47589;SDS011;33316;52.298;9.056;2024-03-29T04:56:58;2.72;;;1.65;;
47589;SDS011;33316;52.298;9.056;2024-03-29T04:59:26;3.53;;;1.55;;
47589;SDS011;33316;52.298;9.056;2024-03-29T05:01:54;3.55;;;1.60;;
47589;SDS011;33316;52.298;9.056;2024-03-29T05:04:22;2.45;;;1.23;;
47589;SDS011;33316;52.298;9.056;2024-03-29T05:06:51;1.85;;;1.20;;
47589;SDS011;33316;52.298;9.056;2024-03-29T05:09:18;2.35;;;1.17;;
47589;SDS011;33316;52.298;9.056;2024-03-29T05:11:46;2.50;;;1.23;;
47589;SDS011;33316;52.298;9.056;2024-03-29T05:14:15;2.72;;;1.30;;
47589;SDS011;33316;52.298;9.056;2024-03-29T05:16:44;3.03;;;0.93;;
47589;SDS011;33316;52.298;9.056;2024-03-29T05:19:11;1.80;;;0.90;;
47589;SDS011;33316;52.298;9.056;2024-03-29T05:21:40;1.40;;;0.82;;
47589;SDS011;33316;52.298;9.056;2024-03-29T05:24:07;1.30;;;0.68;;
47589;SDS011;33316;52.298;9.056;2024-03-29T05:26:34;2.40;;;1.08;;
47589;SDS011;33316;52.298;9.056;2024-03-29T05:29:01;2.20;;;0.90;;
47589;SDS011;33316;52.298;9.056;2024-03-29T05:31:31;1.98;;;0.80;;
47589;SDS011;33316;52.298;9.056;2024-03-29T05:33:58;2.22;;;0.88;;
47589;SDS011;33316;52.298;9.056;2024-03-29T05:36:25;3.28;;;0.77;;
47589;SDS011;33316;52.298;9.056;2024-03-29T05:38:52;2.13;;;0.70;;
47589;SDS011;33316;52.298;9.056;2024-03-29T05:41:21;2.38;;;0.88;;
47589;SDS011;33316;52.298;9.056;2024-03-29T05:43:48;2.45;;;0.60;;
47589;SDS011;33316;52.298;9.056;2024-03-29T05:46:16;0.70;;;0.52;;
47589;SDS011;33316;52.298;9.056;2024-03-29T05:48:46;1.50;;;0.50;;
47589;SDS011;33316;52.298;9.056;2024-03-29T05:51:13;1.27;;;0.60;;
47589;SDS011;33316;52.298;9.056;2024-03-29T05:53:40;1.45;;;0.60;;
47589;SDS011;33316;52.298;9.056;2024-03-29T05:56:07;1.08;;;0.50;;
47589;SDS011;33316;52.298;9.056;2024-03-29T05:58:37;1.15;;;0.50;;
47589;SDS011;33316;52.298;9.056;2024-03-29T06:01:04;1.48;;;0.52;;
47589;SDS011;33316;52.298;9.056;2024-03-29T06:03:31;2.58;;;0.40;;
47589;SDS011;33316;52.298;9.056;2024-03-29T06:05:59;0.98;;;0.40;;
47589;SDS011;33316;52.298;9.056;2024-03-29T06:08:26;1.08;;;0.40;;
47589;SDS011;33316;52.298;9.056;2024-03-29T06:10:53;1.20;;;0.50;;
47589;SDS011;33316;52.298;9.056;2024-03-29T06:13:20;2.35;;;0.60;;
47589;SDS011;33316;52.298;9.056;2024-03-29T06:16:10;0.63;;;0.50;;
47589;SDS011;33316;52.298;9.056;2024-03-29T06:18:56;0.50;;;0.40;;
47589;SDS011;33316;52.298;9.056;2024-03-29T06:21:25;0.63;;;0.40;;
47589;SDS011;33316;52.298;9.056;2024-03-29T06:23:51;1.30;;;0.40;;
47589;SDS011;33316;52.298;9.056;2024-03-29T06:26:18;2.22;;;0.63;;
47589;SDS011;33316;52.298;9.056;2024-03-29T06:28:46;2.22;;;0.50;;
47589;SDS011;33316;52.298;9.056;2024-03-29T06:31:12;1.65;;;0.68;;
47589;SDS011;33316;52.298;9.056;2024-03-29T06:33:39;1.10;;;0.50;;
47589;SDS011;33316;52.298;9.056;2024-03-29T06:36:06;1.67;;;0.57;;
47589;SDS011;33316;52.298;9.056;2024-03-29T06:38:35;1.45;;;0.47;;
47589;SDS011;33316;52.298;9.056;2024-03-29T06:41:02;2.00;;;0.38;;
47589;SDS011;33316;52.298;9.056;2024-03-29T06:43:29;1.55;;;0.50;;
47589;SDS011;33316;52.298;9.056;2024-03-29T06:45:56;1.58;;;0.52;;
47589;SDS011;33316;52.298;9.056;2024-03-29T06:48:27;1.88;;;0.60;;
47589;SDS011;33316;52.298;9.056;2024-03-29T06:50:56;1.58;;;0.45;;
47589;SDS011;33316;52.298;9.056;2024-03-29T06:53:23;1.90;;;0.55;;
47589;SDS011;33316;52.298;9.056;2024-03-29T06:55:51;2.47;;;0.43;;
47589;SDS011;33316;52.298;9.056;2024-03-29T06:58:20;1.27;;;0.30;;
47589;SDS011;33316;52.298;9.056;2024-03-29T07:00:50;0.75;;;0.30;;
47589;SDS011;33316;52.298;9.056;2024-03-29T07:03:19;3.90;;;0.77;;
47589;SDS011;33316;52.298;9.056;2024-03-29T07:05:46;1.10;;;0.50;;
47589;SDS011;33316;52.298;9.056;2024-03-29T07:08:13;2.92;;;0.40;;
47589;SDS011;33316;52.298;9.056;2024-03-29T07:10:40;1.10;;;0.40;;
47589;SDS011;33316;52.298;9.056;2024-03-29T07:13:09;1.33;;;0.30;;
47589;SDS011;33316;52.298;9.056;2024-03-29T07:15:36;0.70;;;0.30;;
47589;SDS011;33316;52.298;9.056;2024-03-29T07:18:03;1.40;;;0.47;;
47589;SDS011;33316;52.298;9.056;2024-03-29T07:20:30;0.47;;;0.38;;
47589;SDS011;33316;52.298;9.056;2024-03-29T07:22:57;1.58;;;0.50;;
47589;SDS011;33316;52.298;9.056;2024-03-29T07:25:24;2.50;;;0.50;;
47589;SDS011;33316;52.298;9.056;2024-03-29T07:27:52;1.85;;;0.57;;
47589;SDS011;33316;52.298;9.056;2024-03-29T07:30:20;2.05;;;0.35;;
47589;SDS011;33316;52.298;9.056;2024-03-29T07:32:47;0.63;;;0.30;;
47589;SDS011;33316;52.298;9.056;2024-03-29T07:35:14;1.77;;;0.70;;
47589;SDS011;33316;52.298;9.056;2024-03-29T07:37:43;0.77;;;0.47;;
47589;SDS011;33316;52.298;9.056;2024-03-29T07:40:12;1.13;;;0.40;;
47589;SDS011;33316;52.298;9.056;2024-03-29T07:42:39;1.30;;;0.52;;
47589;SDS011;33316;52.298;9.056;2024-03-29T07:45:07;0.82;;;0.30;;
47589;SDS011;33316;52.298;9.056;2024-03-29T07:47:35;1.58;;;0.47;;
47589;SDS011;33316;52.298;9.056;2024-03-29T07:50:02;1.73;;;0.40;;
47589;SDS011;33316;52.298;9.056;2024-03-29T07:52:31;1.02;;;0.45;;
47589;SDS011;33316;52.298;9.056;2024-03-29T07:54:58;2.22;;;0.52;;
47589;SDS011;33316;52.298;9.056;2024-03-29T07:57:26;0.98;;;0.40;;
47589;SDS011;33316;52.298;9.056;2024-03-29T07:59:53;1.90;;;0.40;;
47589;SDS011;33316;52.298;9.056;2024-03-29T08:02:20;2.10;;;0.50;;
47589;SDS011;33316;52.298;9.056;2024-03-29T08:04:51;1.17;;;0.38;;
47589;SDS011;33316;52.298;9.056;2024-03-29T08:07:19;1.75;;;0.60;;
47589;SDS011;33316;52.298;9.056;2024-03-29T08:09:45;1.45;;;0.50;;
47589;SDS011;33316;52.298;9.056;2024-03-29T08:12:13;0.75;;;0.40;;
47589;SDS011;33316;52.298;9.056;2024-03-29T08:14:40;1.35;;;0.40;;
47589;SDS011;33316;52.298;9.056;2024-03-29T08:17:07;0.82;;;0.40;;
47589;SDS011;33316;52.298;9.056;2024-03-29T08:19:34;1.17;;;0.45;;
47589;SDS011;33316;52.298;9.056;2024-03-29T08:22:06;1.00;;;0.50;;
47589;SDS011;33316;52.298;9.056;2024-03-29T08:24:35;0.93;;;0.40;;
47589;SDS011;33316;52.298;9.056;2024-03-29T08:27:02;1.52;;;0.50;;
47589;SDS011;33316;52.298;9.056;2024-03-29T08:29:29;1.10;;;0.50;;
47589;SDS011;33316;52.298;9.056;2024-03-29T08:31:56;1.88;;;0.75;;
47589;SDS011;33316;52.298;9.056;2024-03-29T08:34:23;0.95;;;0.40;;
47589;SDS011;33316;52.298;9.056;2024-03-29T08:36:49;0.70;;;0.38;;
47589;SDS011;33316;52.298;9.056;2024-03-29T08:39:17;2.40;;;0.50;;
47589;SDS011;33316;52.298;9.056;2024-03-29T08:41:44;1.25;;;0.40;;
47589;SDS011;33316;52.298;9.056;2024-03-29T08:44:11;0.88;;;0.30;;
47589;SDS011;33316;52.298;9.056;2024-03-29T08:46:40;0.50;;;0.30;;
47589;SDS011;33316;52.298;9.056;2024-03-29T08:49:07;2.35;;;0.52;;
47589;SDS011;33316;52.298;9.056;2024-03-29T08:51:36;2.22;;;0.63;;
47589;SDS011;33316;52.298;9.056;2024-03-29T08:54:03;1.30;;;0.50;;
47589;SDS011;33316;52.298;9.056;2024-03-29T08:56:32;1.50;;;0.75;;
47589;SDS011;33316;52.298;9.056;2024-03-29T08:59:02;1.55;;;0.60;;
47589;SDS011;33316;52.298;9.056;2024-03-29T09:01:32;1.63;;;0.98;;
47589;SDS011;33316;52.298;9.056;2024-03-29T09:03:59;1.10;;;0.77;;
47589;SDS011;33316;52.298;9.056;2024-03-29T09:06:26;0.90;;;0.50;;
47589;SDS011;33316;52.298;9.056;2024-03-29T09:08:53;0.93;;;0.60;;
47589;SDS011;33316;52.298;9.056;2024-03-29T09:11:19;1.23;;;0.65;;
47589;SDS011;33316;52.298;9.056;2024-03-29T09:13:48;0.75;;;0.60;;
47589;SDS011;33316;52.298;9.056;2024-03-29T09:16:14;0.47;;;0.40;;
47589;SDS011;33316;52.298;9.056;2024-03-29T09:18:41;0.95;;;0.40;;
47589;SDS011;33316;52.298;9.056;2024-03-29T09:21:08;1.13;;;0.47;;
47589;SDS011;33316;52.298;9.056;2024-03-29T09:23:36;1.65;;;0.30;;
47589;SDS011;33316;52.298;9.056;2024-03-29T09:26:06;1.58;;;0.40;;
47589;SDS011;33316;52.298;9.056;2024-03-29T09:28:33;0.45;;;0.40;;
47589;SDS011;33316;52.298;9.056;2024-03-29T09:31:03;1.02;;;0.40;;
47589;SDS011;33316;52.298;9.056;2024-03-29T09:33:30;2.90;;;0.40;;
47589;SDS011;33316;52.298;9.056;2024-03-29T09:35:57;0.57;;;0.40;;
47589;SDS011;33316;52.298;9.056;2024-03-29T09:38:26;0.32;;;0.32;;
47589;SDS011;33316;52.298;9.056;2024-03-29T09:40:56;2.42;;;0.60;;
47589;SDS011;33316;52.298;9.056;2024-03-29T09:43:29;0.63;;;0.43;;
47589;SDS011;33316;52.298;9.056;2024-03-29T09:45:57;1.08;;;0.50;;
47589;SDS011;33316;52.298;9.056;2024-03-29T09:48:27;1.10;;;0.35;;
47589;SDS011;33316;52.298;9.056;2024-03-29T09:51:01;1.00;;;0.50;;
47589;SDS011;33316;52.298;9.056;2024-03-29T09:53:29;1.08;;;0.50;;
47589;SDS011;33316;52.298;9.056;2024-03-29T09:55:56;0.82;;;0.40;;
47589;SDS011;33316;52.298;9.056;2024-03-29T09:58:24;0.90;;;0.40;;
47589;SDS011;33316;52.298;9.056;2024-03-29T10:00:51;1.52;;;0.50;;
47589;SDS011;33316;52.298;9.056;2024-03-29T10:03:18;1.73;;;0.80;;
47589;SDS011;33316;52.298;9.056;2024-03-29T10:05:47;2.35;;;1.15;;
47589;SDS011;33316;52.298;9.056;2024-03-29T10:08:15;1.85;;;0.85;;
47589;SDS011;33316;52.298;9.056;2024-03-29T10:10:42;2.80;;;0.88;;
47589;SDS011;33316;52.298;9.056;2024-03-29T10:13:09;1.65;;;0.90;;
47589;SDS011;33316;52.298;9.056;2024-03-29T10:15:36;1.58;;;0.88;;
47589;SDS011;33316;52.298;9.056;2024-03-29T10:18:04;1.48;;;0.90;;
47589;SDS011;33316;52.298;9.056;2024-03-29T10:20:35;1.30;;;0.88;;
47589;SDS011;33316;52.298;9.056;2024-03-29T10:23:03;0.80;;;0.45;;
47589;SDS011;33316;52.298;9.056;2024-03-29T10:25:32;0.93;;;0.40;;
47589;SDS011;33316;52.298;9.056;2024-03-29T10:27:59;0.40;;;0.40;;
47589;SDS011;33316;52.298;9.056;2024-03-29T10:30:28;1.08;;;0.50;;
47589;SDS011;33316;52.298;9.056;2024-03-29T10:32:55;1.75;;;0.47;;
47589;SDS011;33316;52.298;9.056;2024-03-29T10:35:22;0.40;;;0.40;;
47589;SDS011;33316;52.298;9.056;2024-03-29T10:37:51;0.90;;;0.32;;
47589;SDS011;33316;52.298;9.056;2024-03-29T10:40:20;0.88;;;0.50;;
47589;SDS011;33316;52.298;9.056;2024-03-29T10:42:49;0.73;;;0.47;;
47589;SDS011;33316;52.298;9.056;2024-03-29T10:45:20;1.20;;;0.30;;
47589;SDS011;33316;52.298;9.056;2024-03-29T10:47:49;0.63;;;0.40;;
47589;SDS011;33316;52.298;9.056;2024-03-29T10:52:48;0.90;;;0.30;;
47589;SDS011;33316;52.298;9.056;2024-03-29T10:55:18;0.70;;;0.40;;
47589;SDS011;33316;52.298;9.056;2024-03-29T10:57:46;1.38;;;0.63;;
47589;SDS011;33316;52.298;9.056;2024-03-29T11:00:16;1.67;;;0.50;;
47589;SDS011;33316;52.298;9.056;2024-03-29T11:02:47;1.17;;;0.45;;
47589;SDS011;33316;52.298;9.056;2024-03-29T11:05:16;0.57;;;0.30;;
47589;SDS011;33316;52.298;9.056;2024-03-29T11:07:44;0.25;;;0.20;;
47589;SDS011;33316;52.298;9.056;2024-03-29T11:10:13;1.10;;;0.30;;
47589;SDS011;33316;52.298;9.056;2024-03-29T11:12:57;1.65;;;0.32;;
47589;SDS011;33316;52.298;9.056;2024-03-29T11:15:30;0.70;;;0.40;;
47589;SDS011;33316;52.298;9.056;2024-03-29T11:18:03;0.82;;;0.40;;
47589;SDS011;33316;52.298;9.056;2024-03-29T11:20:30;0.45;;;0.30;;
47589;SDS011;33316;52.298;9.056;2024-03-29T11:23:02;0.82;;;0.40;;
47589;SDS011;33316;52.298;9.056;2024-03-29T11:25:40;0.60;;;0.40;;
47589;SDS011;33316;52.298;9.056;2024-03-29T11:28:14;0.55;;;0.28;;
47589;SDS011;33316;52.298;9.056;2024-03-29T11:30:47;0.68;;;0.30;;
47589;SDS011;33316;52.298;9.056;2024-03-29T11:36:11;0.82;;;0.32;;
47589;SDS011;33316;52.298;9.056;2024-03-29T11:38:44;0.65;;;0.40;;
47589;SDS011;33316;52.298;9.056;2024-03-29T11:41:12;1.05;;;0.40;;
47589;SDS011;33316;52.298;9.056;2024-03-29T11:43:42;0.50;;;0.40;;
47589;SDS011;33316;52.298;9.056;2024-03-29T11:46:10;0.60;;;0.40;;
47589;SDS011;33316;52.298;9.056;2024-03-29T11:48:38;0.52;;;0.30;;
47589;SDS011;33316;52.298;9.056;2024-03-29T11:51:06;0.90;;;0.40;;
47589;SDS011;33316;52.298;9.056;2024-03-29T11:53:35;0.30;;;0.30;;
47589;SDS011;33316;52.298;9.056;2024-03-29T11:56:03;0.73;;;0.20;;
47589;SDS011;33316;52.298;9.056;2024-03-29T11:58:31;0.28;;;0.22;;
47589;SDS011;33316;52.298;9.056;2024-03-29T12:01:01;0.45;;;0.30;;
47589;SDS011;33316;52.298;9.056;2024-03-29T12:03:31;0.63;;;0.35;;
47589;SDS011;33316;52.298;9.056;2024-03-29T12:05:59;0.93;;;0.40;;
47589;SDS011;33316;52.298;9.056;2024-03-29T12:08:28;0.88;;;0.40;;
47589;SDS011;33316;52.298;9.056;2024-03-29T12:10:56;0.55;;;0.32;;
47589;SDS011;33316;52.298;9.056;2024-03-29T12:13:24;0.50;;;0.30;;
47589;SDS011;33316;52.298;9.056;2024-03-29T12:15:51;1.15;;;0.40;;
47589;SDS011;33316;52.298;9.056;2024-03-29T12:18:20;1.83;;;0.30;;
47589;SDS011;33316;52.298;9.056;2024-03-29T12:20:48;0.55;;;0.40;;
47589;SDS011;33316;52.298;9.056;2024-03-29T12:23:17;0.55;;;0.25;;
47589;SDS011;33316;52.298;9.056;2024-03-29T12:25:45;0.43;;;0.20;;
47589;SDS011;33316;52.298;9.056;2024-03-29T12:28:14;0.43;;;0.22;;
47589;SDS011;33316;52.298;9.056;2024-03-29T12:30:42;0.75;;;0.40;;
47589;SDS011;33316;52.298;9.056;2024-03-29T12:33:11;2.92;;;0.43;;
47589;SDS011;33316;52.298;9.056;2024-03-29T12:35:42;0.68;;;0.35;;
47589;SDS011;33316;52.298;9.056;2024-03-29T12:38:10;0.73;;;0.38;;
47589;SDS011;33316;52.298;9.056;2024-03-29T12:40:38;0.60;;;0.30;;
47589;SDS011;33316;52.298;9.056;2024-03-29T12:43:08;0.32;;;0.20;;
47589;SDS011;33316;52.298;9.056;2024-03-29T12:45:36;0.30;;;0.30;;
47589;SDS011;33316;52.298;9.056;2024-03-29T12:48:10;1.75;;;0.30;;
47589;SDS011;33316;52.298;9.056;2024-03-29T12:50:39;0.85;;;0.32;;
47589;SDS011;33316;52.298;9.056;2024-03-29T12:53:11;0.75;;;0.40;;
47589;SDS011;33316;52.298;9.056;2024-03-29T12:55:39;1.92;;;0.40;;
47589;SDS011;33316;52.298;9.056;2024-03-29T12:58:09;0.35;;;0.25;;
47589;SDS011;33316;52.298;9.056;2024-03-29T13:00:36;0.20;;;0.20;;
47589;SDS011;33316;52.298;9.056;2024-03-29T13:03:03;0.50;;;0.30;;
47589;SDS011;33316;52.298;9.056;2024-03-29T13:05:33;0.40;;;0.30;;
47589;SDS011;33316;52.298;9.056;2024-03-29T13:08:07;0.20;;;0.20;;
47589;SDS011;33316;52.298;9.056;2024-03-29T13:10:35;0.40;;;0.30;;
47589;SDS011;33316;52.298;9.056;2024-03-29T13:13:02;0.60;;;0.30;;
47589;SDS011;33316;52.298;9.056;2024-03-29T13:15:31;0.60;;;0.40;;
47589;SDS011;33316;52.298;9.056;2024-03-29T13:17:59;0.47;;;0.32;;
47589;SDS011;33316;52.298;9.056;2024-03-29T13:20:26;0.30;;;0.25;;
47589;SDS011;33316;52.298;9.056;2024-03-29T13:22:53;0.50;;;0.40;;
47589;SDS011;33316;52.298;9.056;2024-03-29T13:25:22;0.75;;;0.40;;
47589;SDS011;33316;52.298;9.056;2024-03-29T13:27:49;2.10;;;0.40;;
47589;SDS011;33316;52.298;9.056;2024-03-29T13:30:20;0.70;;;0.20;;
47589;SDS011;33316;52.298;9.056;2024-03-29T13:32:50;1.08;;;0.20;;
47589;SDS011;33316;52.298;9.056;2024-03-29T13:35:18;0.38;;;0.28;;
47589;SDS011;33316;52.298;9.056;2024-03-29T13:37:49;0.52;;;0.20;;
47589;SDS011;33316;52.298;9.056;2024-03-29T13:40:19;0.30;;;0.28;;
47589;SDS011;33316;52.298;9.056;2024-03-29T13:42:48;0.30;;;0.20;;
47589;SDS011;33316;52.298;9.056;2024-03-29T13:45:15;0.98;;;0.40;;
47589;SDS011;33316;52.298;9.056;2024-03-29T13:47:42;0.73;;;0.35;;
47589;SDS011;33316;52.298;9.056;2024-03-29T13:50:11;0.73;;;0.30;;
47589;SDS011;33316;52.298;9.056;2024-03-29T13:52:40;0.68;;;0.30;;
47589;SDS011;33316;52.298;9.056;2024-03-29T13:55:08;0.90;;;0.30;;
47589;SDS011;33316;52.298;9.056;2024-03-29T13:57:35;0.13;;;0.10;;
47589;SDS011;33316;52.298;9.056;2024-03-29T14:00:05;1.40;;;0.20;;
47589;SDS011;33316;52.298;9.056;2024-03-29T14:02:33;1.05;;;0.35;;
47589;SDS011;33316;52.298;9.056;2024-03-29T14:05:00;0.55;;;0.20;;
47589;SDS011;33316;52.298;9.056;2024-03-29T14:07:29;0.30;;;0.20;;
47589;SDS011;33316;52.298;9.056;2024-03-29T14:09:56;0.60;;;0.30;;
47589;SDS011;33316;52.298;9.056;2024-03-29T14:12:24;0.55;;;0.40;;
47589;SDS011;33316;52.298;9.056;2024-03-29T14:14:51;0.43;;;0.20;;
47589;SDS011;33316;52.298;9.056;2024-03-29T14:17:19;0.50;;;0.30;;
47589;SDS011;33316;52.298;9.056;2024-03-29T14:19:46;2.05;;;0.50;;
47589;SDS011;33316;52.298;9.056;2024-03-29T14:22:14;0.65;;;0.30;;
47589;SDS011;33316;52.298;9.056;2024-03-29T14:24:43;0.40;;;0.30;;
47589;SDS011;33316;52.298;9.056;2024-03-29T14:27:10;0.98;;;0.47;;
47589;SDS011;33316;52.298;9.056;2024-03-29T14:29:39;0.50;;;0.40;;
47589;SDS011;33316;52.298;9.056;2024-03-29T14:32:09;0.90;;;0.43;;
47589;SDS011;33316;52.298;9.056;2024-03-29T14:34:38;2.55;;;0.40;;
47589;SDS011;33316;52.298;9.056;2024-03-29T14:37:10;0.63;;;0.30;;
47589;SDS011;33316;52.298;9.056;2024-03-29T14:39:38;0.77;;;0.40;;
47589;SDS011;33316;52.298;9.056;2024-03-29T14:42:07;0.50;;;0.30;;
47589;SDS011;33316;52.298;9.056;2024-03-29T14:44:36;0.60;;;0.30;;
47589;SDS011;33316;52.298;9.056;2024-03-29T14:47:03;0.70;;;0.30;;
47589;SDS011;33316;52.298;9.056;2024-03-29T14:49:31;0.43;;;0.22;;
47589;SDS011;33316;52.298;9.056;2024-03-29T14:51:59;0.43;;;0.30;;
47589;SDS011;33316;52.298;9.056;2024-03-29T14:54:26;0.65;;;0.30;;
47589;SDS011;33316;52.298;9.056;2024-03-29T14:56:54;0.52;;;0.30;;